目前分類:電源專區 (54)

瀏覽方式: 標題列表 簡短摘要
發表時間 文章標題 人氣 留言
2019-04-12 置頂 電源測試文閱讀小指南 (5201) (4)
2020-01-22 FSP Hydro G PRO 850W全模組化金牌電源開箱 (509) (0)
2020-01-22 FSP Hydro G PRO 750W全模組化金牌電源開箱 (403) (0)
2019-12-25 XPG CORE REACTOR 650W全模組化金牌電源開箱 (516) (0)
2019-11-25 Fractal Design ION+ 660P全模組化白金電源開箱 (682) (2)
2019-08-27 FSP金鋼彈Dagger Pro 650W模組化SFX電源開箱 (1313) (0)
2019-05-07 安耐美REVOLUTION D.F.全模組化金牌電源開箱 (1424) (0)
2019-05-02 BitFenix Formula Gold 750W金牌直出電源開箱 (648) (0)
2019-04-15 安耐美超靜銅魔TGA特仕版500W開箱 (790) (0)
2019-04-06 MONTECH GAMMA 650W直出線金牌電源開箱測試 (2026) (1)
2019-04-06 be quiet! STRAIGHT POWER 11 550W金牌全模組化電源開箱 (1414) (0)
2019-03-20 COOLER MASTER V1300 PLATINUM白金全模組化電源開箱 (1645) (5)
2019-03-20 COOLER MASTER V850 GOLD金牌全模組化電源開箱 (1349) (0)
2019-02-25 MISTEL VISION MX550無風扇全模組金牌電源供應器開箱 (1426) (0)
2019-01-09 be quiet! PURE POWER 10 500W開箱測試 (1601) (0)
2019-01-08 MONTECH ALPHA X 500W開箱測試 (2063) (0)
2018-10-21 ASUS ROG THOR 1200W白金電競電源開箱測試 (4720) (0)
2018-10-07 Apexgaming AG-850M電源開箱 (1746) (2)
2018-08-25 Antec High Current Gamer X1000開箱測試 (1938) (0)
2018-08-21 NZXT E850數位監控電源開箱測試 (2434) (0)
2018-07-02 Cougar GX-S 750W金牌直出線電源開箱測試 (1183) (0)
2018-07-02 Antec High Current Gamer HCG850開箱測試 (5866) (0)
2018-07-01 Cougar GX-F 750W金牌全模組化電源開箱測試 (1327) (0)
2018-01-22 海韻PRIME Ultra Titanium 650W(SSR-650TR)電源供應器測試 (2701) (0)
2017-11-30 Corsair AX1500i電源供應器測試 (1743) (0)
2017-11-14 海韻PRIME Titanium 650W電源供應器簡介及測試 (4241) (0)
2017-11-10 Antec NeoECO GOLD系列750W電源供應器簡介及測試 (6913) (6)
2017-09-29 全漢Hydro PT皇鈦極V 750W簡介及測試 (2986) (0)
2017-09-22 Thermaltake ToughPower Grand RGB 850測試 (499) (0)
2017-09-22 全漢皇鈦極AURUM PT-1000FM測試 (593) (0)
2017-09-22 振華Leadex Titanium 750W電源供應器測試 (4717) (0)
2017-09-21 銅牌加雙DC-DC的Antec Neo ECO II 650W測試 (1602) (0)
2017-09-21 Antec EDGE 650全模組化電源供應器測試 (1122) (0)
2017-09-07 振華LEADEX PLATINUM 1000W電源供應器測試 (1586) (0)
2017-09-07 Antec High Current Pro 850 Platinum電源供應器測試 (931) (0)
2017-08-27 Thermaltake ToughPower Grand RGB 850拆解 (1159) (3)
2017-08-25 Antec EDGE 650全模組化電源供應器拆解 (6316) (0)
2017-08-12 全漢皇鈦極AURUM PT-1000FM拆解 (1146) (2)
2017-08-11 小瓦數金牌Antec TruePower Classic 450W拆解 (1842) (0)
2017-08-10 銅牌加雙DC-DC的Antec Neo ECO II 650W拆解 (5457) (2)
2017-08-06 振華白金冰蝶750W拆解 (2152) (0)
2017-08-05 振華LEADEX PLATINUM 1000W電源供應器拆解 (5227) (0)
2017-08-04 Antec High Current Pro 850 Platinum電源供應器拆解 (3057) (4)
2017-07-17 Cooler Master MasterWatt Maker 1200 MIJ電源供應器-測試篇 (2697) (2)
2017-07-11 Cooler Master MasterWatt Maker 1200 MIJ電源供應器-解析篇 (6272) (9)
2013-04-03 海韻金牌G系列550W模組化電源供應器簡介及測試 (32685) (20)
2013-03-23 Thermaltake Toughpower 650W金牌直出線電源簡介及測試 (5775) (2)
2013-03-07 Enermax Platimax白金認證全模組化1200W電源供應器簡介及測試 (3798) (3)
2013-03-02 全漢皇鈦極650W模組化白金電源簡介及測試 (19229) (0)
2013-02-02 VANTEC VOLTRA550模組化電源供應器簡介及測試 (2392) (1)
1 2